Time;durP1;ratioP1;P1;durP2;ratioP2;P2;SDS_P1;SDS_P2;PMS_P1;PMS_P2;Temp;Humidity;BMP_temperature;BMP_pressure;BME280_temperature;BME280_humidity;BME280_pressure;Samples;Min_cycle;Max_cycle;Signal;HPM_P1;HPM_P2
2022/04/08 00:01:02;;;;;;;5.03;1.50;;;8.40;87.40;;;;;;5058895;28;20217;-45
2022/04/08 00:03:28;;;;;;;6.63;2.70;;;8.40;87.00;;;;;;5067282;28;20173;-45
2022/04/08 00:05:54;;;;;;;5.73;1.90;;;8.40;87.00;;;;;;5068640;28;20178;-46
2022/04/08 00:08:20;;;;;;;4.70;1.63;;;8.40;87.00;;;;;;5069348;28;20435;-46
2022/04/08 00:10:46;;;;;;;7.23;2.10;;;8.40;87.50;;;;;;5067606;28;20468;-46
2022/04/08 00:13:12;;;;;;;7.80;2.20;;;8.40;87.90;;;;;;5069446;28;20452;-45
2022/04/08 00:15:38;;;;;;;6.80;1.90;;;8.40;87.90;;;;;;5052960;28;20436;-46
2022/04/08 00:18:07;;;;;;;4.83;1.60;;;8.30;87.80;;;;;;5056673;28;20185;-45
2022/04/08 00:20:34;;;;;;;3.77;1.77;;;8.30;88.00;;;;;;5068257;28;20432;-46
2022/04/08 00:23:01;;;;;;;6.30;1.70;;;8.40;87.10;;;;;;5059079;28;20452;-45
2022/04/08 00:25:27;;;;;;;3.57;1.43;;;8.30;87.40;;;;;;5067910;28;20944;-46
2022/04/08 00:27:53;;;;;;;7.20;1.73;;;8.30;87.70;;;;;;5068620;28;20437;-46
2022/04/08 00:30:18;;;;;;;6.13;1.47;;;8.30;87.30;;;;;;5068361;28;20243;-46
2022/04/08 00:33:09;;;;;;;6.57;1.90;;;8.30;86.50;;;;;;5070968;28;20231;-45
2022/04/08 00:35:35;;;;;;;5.13;1.87;;;8.20;86.90;;;;;;5068673;28;20807;-46
2022/04/08 00:38:00;;;;;;;4.40;1.27;;;8.30;87.40;;;;;;5069402;28;20460;-45
2022/04/08 00:40:26;;;;;;;4.87;1.43;;;8.20;86.40;;;;;;5068290;28;20231;-45
2022/04/08 00:42:52;;;;;;;6.50;1.53;;;8.20;86.40;;;;;;5068982;28;20189;-46
2022/04/08 00:45:17;;;;;;;3.30;1.77;;;8.20;86.10;;;;;;5068903;28;20564;-46
2022/04/08 00:47:44;;;;;;;9.07;2.20;;;8.20;86.40;;;;;;5068221;28;20268;-45
2022/04/08 00:50:11;;;;;;;4.97;1.30;;;8.20;85.80;;;;;;5068456;28;20246;-45
2022/04/08 00:52:39;;;;;;;7.33;1.33;;;8.20;84.90;;;;;;5067109;28;20435;-46
2022/04/08 00:55:06;;;;;;;4.40;1.60;;;8.20;84.70;;;;;;5066542;28;20442;-46
2022/04/08 00:57:33;;;;;;;3.50;1.40;;;8.20;85.10;;;;;;5067074;28;20473;-45
2022/04/08 01:00:08;;;;;;;4.53;1.60;;;8.20;85.00;;;;;;5067214;28;20929;-45
2022/04/08 01:02:34;;;;;;;4.17;1.53;;;8.20;85.00;;;;;;5066313;28;20439;-45
2022/04/08 01:05:00;;;;;;;5.50;1.70;;;8.20;85.20;;;;;;5059337;28;20443;-47
2022/04/08 01:07:26;;;;;;;5.13;2.07;;;8.20;85.20;;;;;;5065718;28;20439;-46
2022/04/08 01:09:52;;;;;;;5.40;1.80;;;8.20;85.60;;;;;;5068652;28;20681;-46
2022/04/08 01:12:18;;;;;;;7.93;2.20;;;8.10;85.70;;;;;;5068948;28;20204;-45
2022/04/08 01:14:44;;;;;;;7.00;1.70;;;8.10;85.60;;;;;;5069579;28;20420;-45
2022/04/08 01:17:09;;;;;;;3.40;1.33;;;8.10;85.80;;;;;;5068332;28;20704;-45
2022/04/08 01:19:35;;;;;;;5.37;1.67;;;8.10;86.40;;;;;;5068687;28;20286;-46
2022/04/08 01:22:00;;;;;;;3.10;1.13;;;8.10;86.60;;;;;;5067419;28;20702;-46
2022/04/08 01:24:27;;;;;;;6.53;1.97;;;8.10;87.00;;;;;;5066891;28;20588;-46
2022/04/08 01:26:53;;;;;;;7.43;1.97;;;8.00;86.90;;;;;;5067890;28;20260;-46
2022/04/08 01:29:19;;;;;;;6.77;1.80;;;8.00;87.00;;;;;;5068832;28;20525;-45
2022/04/08 01:35:06;;;;;;;7.83;1.70;;;8.00;87.20;;;;;;5053248;28;20220;-46
2022/04/08 01:37:32;;;;;;;5.73;2.10;;;8.00;87.20;;;;;;5054350;28;20438;-46
2022/04/08 01:39:57;;;;;;;3.77;1.63;;;8.00;85.60;;;;;;5055095;28;20501;-46
2022/04/08 01:42:24;;;;;;;6.50;1.83;;;8.00;85.20;;;;;;5053559;28;20186;-45
2022/04/08 01:44:51;;;;;;;3.87;1.40;;;8.00;83.70;;;;;;5053772;28;20501;-46
2022/04/08 01:47:16;;;;;;;6.00;1.73;;;8.00;83.70;;;;;;5053643;28;20440;-45
2022/04/08 01:49:42;;;;;;;6.00;1.40;;;8.00;82.80;;;;;;5054984;28;20685;-45
2022/04/08 01:52:08;;;;;;;6.80;2.20;;;8.00;82.50;;;;;;5053575;28;20198;-45
2022/04/08 01:54:33;;;;;;;2.60;1.30;;;8.00;82.00;;;;;;5054661;28;20190;-46
2022/04/08 01:56:59;;;;;;;4.27;1.53;;;8.00;82.10;;;;;;5054070;28;20191;-46
2022/04/08 01:59:24;;;;;;;6.30;2.03;;;8.00;82.50;;;;;;5055033;28;20252;-46
2022/04/08 02:01:50;;;;;;;5.70;1.50;;;8.00;82.70;;;;;;5054887;28;20209;-45
2022/04/08 02:04:16;;;;;;;9.57;1.80;;;7.90;83.10;;;;;;5055082;28;20224;-46
2022/04/08 02:06:42;;;;;;;4.37;1.60;;;7.90;83.60;;;;;;5053759;28;20265;-45
2022/04/08 02:09:08;;;;;;;4.90;1.60;;;7.90;83.70;;;;;;5054990;28;20178;-46
2022/04/08 02:11:35;;;;;;;5.90;1.70;;;7.90;84.10;;;;;;5057669;28;20504;-46
2022/04/08 02:14:01;;;;;;;5.37;1.70;;;7.80;84.20;;;;;;5066807;28;20432;-46
2022/04/08 02:16:27;;;;;;;4.00;1.60;;;7.80;84.50;;;;;;5072405;28;20526;-46
2022/04/08 02:18:53;;;;;;;2.30;1.40;;;7.80;84.90;;;;;;5073079;28;20471;-45
2022/04/08 02:21:19;;;;;;;5.73;1.87;;;7.70;85.30;;;;;;5070877;28;20587;-46
2022/04/08 02:23:48;;;;;;;4.30;1.20;;;7.70;85.50;;;;;;5071952;28;20178;-45
2022/04/08 02:26:16;;;;;;;3.80;1.23;;;7.70;85.90;;;;;;5053245;28;20762;-46
2022/04/08 02:28:45;;;;;;;5.60;1.43;;;7.60;86.10;;;;;;5070113;28;20431;-46
2022/04/08 02:31:11;;;;;;;3.90;1.50;;;7.60;86.40;;;;;;5070022;28;20471;-46
2022/04/08 02:33:37;;;;;;;5.47;1.90;;;7.60;86.40;;;;;;5070210;28;20475;-45
2022/04/08 02:36:04;;;;;;;5.80;1.73;;;7.60;85.70;;;;;;5068683;28;20461;-45
2022/04/08 02:38:29;;;;;;;3.63;1.40;;;7.60;86.30;;;;;;5070320;28;20943;-45
2022/04/08 02:40:55;;;;;;;4.33;1.50;;;7.60;85.60;;;;;;5068434;28;20698;-45
2022/04/08 02:43:22;;;;;;;2.50;1.33;;;7.50;85.80;;;;;;5067331;28;20533;-46
2022/04/08 02:45:48;;;;;;;3.90;1.10;;;7.60;84.70;;;;;;5069473;28;20208;-45
2022/04/08 02:48:13;;;;;;;4.17;1.30;;;7.50;83.60;;;;;;5070360;28;21152;-43
2022/04/08 02:50:40;;;;;;;3.90;1.70;;;7.50;83.90;;;;;;5069447;28;20194;-45
2022/04/08 02:53:06;;;;;;;4.47;1.40;;;7.50;84.20;;;;;;5068278;28;20493;-45
2022/04/08 02:55:31;;;;;;;2.47;1.00;;;7.40;84.50;;;;;;5068994;28;20434;-46
2022/04/08 02:57:57;;;;;;;2.53;1.20;;;7.40;84.90;;;;;;5070975;28;20181;-46
2022/04/08 03:00:22;;;;;;;3.50;1.53;;;7.40;84.80;;;;;;5067398;28;20616;-45
2022/04/08 03:02:48;;;;;;;2.53;1.30;;;7.40;84.80;;;;;;5068903;28;20186;-45
2022/04/08 03:05:14;;;;;;;3.33;1.47;;;7.40;84.60;;;;;;5070334;28;20604;-45
2022/04/08 03:07:41;;;;;;;5.87;1.37;;;7.40;84.10;;;;;;5068556;28;20491;-46
2022/04/08 03:10:08;;;;;;;5.80;1.20;;;7.40;83.10;;;;;;5069629;28;21092;-46
2022/04/08 03:12:34;;;;;;;4.50;1.10;;;7.40;82.60;;;;;;5068523;28;20526;-46
2022/04/08 03:15:00;;;;;;;3.83;1.50;;;7.40;83.10;;;;;;5056568;28;21039;-45
2022/04/08 03:17:26;;;;;;;5.60;1.53;;;7.30;82.80;;;;;;5066614;28;20540;-46
2022/04/08 03:19:52;;;;;;;6.57;1.70;;;7.30;82.10;;;;;;5068184;28;20773;-45
2022/04/08 03:22:20;;;;;;;4.50;1.93;;;7.30;82.00;;;;;;5067520;28;20712;-46
2022/04/08 03:24:47;;;;;;;7.20;1.60;;;7.20;81.60;;;;;;5071676;28;20758;-46
2022/04/08 03:27:13;;;;;;;4.03;1.70;;;7.20;82.00;;;;;;5070741;28;20436;-45
2022/04/08 03:29:39;;;;;;;2.37;0.90;;;7.20;81.20;;;;;;5070917;28;20514;-46
2022/04/08 03:32:05;;;;;;;4.23;1.47;;;7.20;81.60;;;;;;5071150;28;20519;-45
2022/04/08 03:34:31;;;;;;;8.07;2.53;;;7.10;81.70;;;;;;5070608;28;20235;-46
2022/04/08 03:36:57;;;;;;;4.57;1.43;;;7.10;82.40;;;;;;5070843;28;20416;-45
2022/04/08 03:39:23;;;;;;;3.90;1.60;;;7.10;82.30;;;;;;5070094;28;20540;-45
2022/04/08 03:41:48;;;;;;;7.20;1.57;;;7.10;81.20;;;;;;5070846;28;20216;-46
2022/04/08 03:44:14;;;;;;;5.23;1.40;;;7.10;80.80;;;;;;5069869;28;20180;-46
2022/04/08 03:46:41;;;;;;;3.70;1.50;;;7.10;81.80;;;;;;5069854;28;20246;-45
2022/04/08 03:49:14;;;;;;;8.80;3.00;;;7.10;80.20;;;;;;5069357;28;20518;-46
2022/04/08 03:51:40;;;;;;;4.70;1.30;;;7.20;80.30;;;;;;5068255;28;20730;-46
2022/04/08 03:54:06;;;;;;;2.60;1.13;;;7.10;81.00;;;;;;5068803;28;20499;-46
2022/04/08 03:56:32;;;;;;;4.50;1.30;;;7.10;80.30;;;;;;5068229;28;21061;-46
2022/04/08 03:58:57;;;;;;;7.43;2.80;;;7.10;80.60;;;;;;5066632;28;20209;-45
2022/04/08 04:01:23;;;;;;;8.07;4.50;;;7.10;81.00;;;;;;5064780;28;20196;-46
2022/04/08 04:03:49;;;;;;;9.67;2.10;;;7.00;81.20;;;;;;5066350;28;20188;-45
2022/04/08 04:06:15;;;;;;;7.23;1.50;;;7.00;81.10;;;;;;5068563;28;20182;-46
2022/04/08 04:08:41;;;;;;;4.83;1.60;;;7.00;81.50;;;;;;5067525;28;20502;-44
2022/04/08 04:11:06;;;;;;;6.87;2.00;;;7.00;81.40;;;;;;5065559;28;20602;-46
2022/04/08 04:13:32;;;;;;;5.70;1.63;;;7.00;82.00;;;;;;5065567;28;20188;-45
2022/04/08 04:15:58;;;;;;;6.47;2.53;;;7.00;82.10;;;;;;5066876;28;20236;-44
2022/04/08 04:18:25;;;;;;;9.37;1.70;;;7.00;82.20;;;;;;5069627;28;20192;-46
2022/04/08 04:20:50;;;;;;;4.70;1.80;;;7.00;82.60;;;;;;5068803;28;20186;-45
2022/04/08 04:23:16;;;;;;;7.43;2.03;;;6.90;82.70;;;;;;5067629;28;20423;-47
2022/04/08 04:25:42;;;;;;;5.80;1.80;;;6.90;82.60;;;;;;5066476;28;20240;-46
2022/04/08 04:28:07;;;;;;;5.03;1.70;;;6.90;82.90;;;;;;5066411;28;20215;-46
2022/04/08 04:30:34;;;;;;;4.10;1.97;;;6.90;83.30;;;;;;5066893;28;20273;-47
2022/04/08 04:33:01;;;;;;;6.07;1.80;;;6.90;83.60;;;;;;5067879;28;20628;-48
2022/04/08 04:35:27;;;;;;;4.70;1.33;;;6.90;83.70;;;;;;5066820;28;20904;-47
2022/04/08 04:37:52;;;;;;;5.20;1.50;;;7.00;84.00;;;;;;5067963;28;20415;-44
2022/04/08 04:40:18;;;;;;;8.93;1.77;;;7.00;83.50;;;;;;5067446;28;20312;-44
2022/04/08 04:42:44;;;;;;;3.93;1.40;;;6.90;83.50;;;;;;5068698;28;20243;-44
2022/04/08 04:45:11;;;;;;;4.80;1.50;;;6.90;83.70;;;;;;5064799;28;20591;-44
2022/04/08 04:47:38;;;;;;;4.30;1.50;;;6.90;83.90;;;;;;5062782;28;20250;-46
2022/04/08 04:50:05;;;;;;;9.70;1.80;;;6.90;83.90;;;;;;5063303;28;20674;-47
2022/04/08 04:52:30;;;;;;;5.30;1.63;;;7.00;84.00;;;;;;5064193;28;20868;-44
2022/04/08 04:54:56;;;;;;;5.30;1.80;;;7.10;83.80;;;;;;5064127;28;20424;-46
2022/04/08 04:57:22;;;;;;;3.43;1.50;;;7.00;84.00;;;;;;5063740;28;20193;-45
2022/04/08 04:59:48;;;;;;;4.70;1.67;;;7.00;83.50;;;;;;5061273;28;21036;-45
2022/04/08 05:02:14;;;;;;;7.47;1.63;;;7.10;83.60;;;;;;5049599;28;20439;-45
2022/04/08 05:04:39;;;;;;;7.77;2.13;;;7.10;83.30;;;;;;5061091;28;20193;-45
2022/04/08 05:07:05;;;;;;;8.50;1.83;;;7.20;82.90;;;;;;5060347;28;20657;-46
2022/04/08 05:09:31;;;;;;;2.47;1.30;;;7.20;83.10;;;;;;5040649;28;20705;-45
2022/04/08 05:11:56;;;;;;;11.00;1.90;;;7.20;83.00;;;;;;5055783;28;20421;-44
2022/04/08 05:14:24;;;;;;;3.73;1.60;;;7.20;82.70;;;;;;5056310;28;20470;-46
2022/04/08 05:16:50;;;;;;;7.00;2.27;;;7.30;82.90;;;;;;5055179;28;20290;-44
2022/04/08 05:19:16;;;;;;;3.97;1.57;;;7.30;83.20;;;;;;5052765;28;20471;-45
2022/04/08 05:21:42;;;;;;;7.13;2.50;;;7.30;83.50;;;;;;5054134;28;20531;-45
2022/04/08 05:24:08;;;;;;;5.20;2.23;;;7.40;83.60;;;;;;5055583;28;20769;-47
2022/04/08 05:26:34;;;;;;;2.53;1.50;;;7.30;83.60;;;;;;5055434;28;20545;-46
2022/04/08 05:28:59;;;;;;;4.10;1.50;;;7.30;84.00;;;;;;5054824;28;20180;-44
2022/04/08 05:31:25;;;;;;;5.77;1.63;;;7.40;84.20;;;;;;5056068;28;20198;-46
2022/04/08 05:33:50;;;;;;;5.07;1.53;;;7.40;84.40;;;;;;5060591;28;20211;-45
2022/04/08 05:36:16;;;;;;;4.97;1.37;;;7.40;84.60;;;;;;5059706;28;20196;-47
2022/04/08 05:38:41;;;;;;;8.20;1.60;;;7.40;84.60;;;;;;5058134;28;20206;-46
2022/04/08 05:41:07;;;;;;;3.50;1.33;;;7.40;84.90;;;;;;5056909;28;20192;-45
2022/04/08 05:43:33;;;;;;;4.00;1.50;;;7.40;85.40;;;;;;5055378;28;20614;-45
2022/04/08 05:45:58;;;;;;;4.40;1.33;;;7.40;85.60;;;;;;5057912;28;20404;-44
2022/04/08 05:48:24;;;;;;;4.73;1.30;;;7.40;86.20;;;;;;5059795;28;20266;-45
2022/04/08 05:50:49;;;;;;;4.10;1.73;;;7.40;86.60;;;;;;5062858;28;20187;-45
2022/04/08 05:53:15;;;;;;;6.07;1.87;;;7.40;86.80;;;;;;5061673;28;20292;-45
2022/04/08 05:55:41;;;;;;;5.23;1.80;;;7.40;87.90;;;;;;5060956;28;20592;-44
2022/04/08 05:58:06;;;;;;;3.33;1.90;;;7.50;88.00;;;;;;5066245;28;20181;-45
2022/04/08 06:00:34;;;;;;;6.07;1.47;;;7.50;89.60;;;;;;5066026;28;20642;-48
2022/04/08 06:02:59;;;;;;;5.33;1.60;;;7.50;90.20;;;;;;5064317;28;20305;-45
2022/04/08 06:05:25;;;;;;;5.70;1.70;;;7.50;90.70;;;;;;5063749;28;20534;-44
2022/04/08 06:07:53;;;;;;;3.53;1.80;;;7.40;91.30;;;;;;5065518;28;20186;-45
2022/04/08 06:10:22;;;;;;;6.73;1.83;;;7.30;91.90;;;;;;5066080;28;20431;-45
2022/04/08 06:12:51;;;;;;;9.67;3.00;;;7.30;92.20;;;;;;5063064;28;20880;-45
2022/04/08 06:15:18;;;;;;;6.10;3.13;;;7.10;92.80;;;;;;5061913;28;20672;-45
2022/04/08 06:17:44;;;;;;;2.40;1.33;;;7.10;93.30;;;;;;5062878;28;20432;-45
2022/04/08 06:20:11;;;;;;;3.73;1.40;;;7.10;92.90;;;;;;5063988;28;20467;-44
2022/04/08 06:22:41;;;;;;;5.80;1.80;;;7.10;93.80;;;;;;5062783;28;20463;-45
2022/04/08 06:25:16;;;;;;;6.80;2.00;;;6.90;94.10;;;;;;5063944;28;20663;-44
2022/04/08 06:27:44;;;;;;;5.77;3.33;;;6.90;94.70;;;;;;5065012;28;20472;-45
2022/04/08 06:30:14;;;;;;;3.50;1.70;;;6.90;95.20;;;;;;5064630;28;20431;-45
2022/04/08 06:32:43;;;;;;;4.70;2.70;;;6.80;95.20;;;;;;5060847;28;20428;-46
2022/04/08 06:35:09;;;;;;;3.90;1.73;;;6.90;95.60;;;;;;5065127;28;20746;-44
2022/04/08 06:37:34;;;;;;;5.93;2.57;;;6.80;96.10;;;;;;5067955;28;20515;-46
2022/04/08 06:40:10;;;;;;;5.40;1.60;;;6.70;96.40;;;;;;5064357;28;20470;-47
2022/04/08 06:42:36;;;;;;;6.03;2.03;;;6.70;96.10;;;;;;5063254;28;20227;-46
2022/04/08 06:45:03;;;;;;;4.70;2.43;;;6.70;96.40;;;;;;5062616;28;20432;-45
2022/04/08 06:47:29;;;;;;;4.90;2.33;;;6.70;96.70;;;;;;5063489;28;20447;-45
2022/04/08 06:49:54;;;;;;;6.07;2.57;;;6.70;97.00;;;;;;5046574;28;20911;-44
2022/04/08 06:52:20;;;;;;;6.13;3.07;;;6.70;97.10;;;;;;5064522;28;20190;-45
2022/04/08 06:54:46;;;;;;;3.30;1.60;;;6.60;96.90;;;;;;5063587;28;20595;-46
2022/04/08 06:57:12;;;;;;;3.50;1.37;;;6.50;97.20;;;;;;5065356;28;20510;-46
2022/04/08 06:59:38;;;;;;;4.47;1.60;;;6.60;97.20;;;;;;5066440;28;20824;-45
2022/04/08 07:02:04;;;;;;;7.40;1.23;;;6.50;97.60;;;;;;5063527;28;20193;-46
2022/04/08 07:04:30;;;;;;;2.27;1.50;;;6.40;97.40;;;;;;5066382;28;20432;-45
2022/04/08 07:06:56;;;;;;;3.87;2.00;;;6.40;97.90;;;;;;5062541;28;20185;-47
2022/04/08 07:09:22;;;;;;;6.03;2.00;;;6.50;98.10;;;;;;5065514;28;20227;-44
2022/04/08 07:11:48;;;;;;;2.70;1.50;;;6.50;98.10;;;;;;5064274;28;20189;-46
2022/04/08 07:14:14;;;;;;;4.90;1.27;;;6.60;98.50;;;;;;5066938;28;20441;-45
2022/04/08 07:16:41;;;;;;;7.70;1.93;;;6.70;98.40;;;;;;5064995;28;20830;-45
2022/04/08 07:19:10;;;;;;;3.00;1.33;;;6.60;97.90;;;;;;5056585;28;20480;-45
2022/04/08 07:21:36;;;;;;;2.40;1.13;;;6.50;97.40;;;;;;5048608;28;20424;-44
2022/04/08 07:24:02;;;;;;;3.40;1.10;;;6.40;97.40;;;;;;5066300;28;20776;-47
2022/04/08 07:26:27;;;;;;;1.43;0.80;;;6.40;97.40;;;;;;5066735;28;20537;-46
2022/04/08 07:28:53;;;;;;;1.73;0.90;;;6.40;97.70;;;;;;5057172;28;20296;-45
2022/04/08 07:31:19;;;;;;;2.90;1.23;;;6.40;97.70;;;;;;5057609;28;20189;-46
2022/04/08 07:33:44;;;;;;;5.87;1.50;;;6.50;98.20;;;;;;5061429;28;20631;-46
2022/04/08 07:36:11;;;;;;;5.90;2.77;;;6.60;98.50;;;;;;5064708;28;20251;-44
2022/04/08 07:38:37;;;;;;;2.80;1.13;;;6.60;98.20;;;;;;5062794;28;20579;-45
2022/04/08 07:41:03;;;;;;;4.83;1.53;;;6.60;98.00;;;;;;5066775;28;20501;-46
2022/04/08 07:43:29;;;;;;;5.70;2.90;;;6.60;97.90;;;;;;5060874;28;20198;-45
2022/04/08 07:45:54;;;;;;;4.17;2.33;;;6.60;97.90;;;;;;5059087;28;21629;-45
2022/04/08 07:48:20;;;;;;;2.80;1.40;;;6.60;98.00;;;;;;5056995;28;20617;-45
2022/04/08 07:50:46;;;;;;;2.40;1.27;;;6.60;98.20;;;;;;5059652;28;20827;-46
2022/04/08 07:53:11;;;;;;;2.13;0.90;;;6.80;98.50;;;;;;5062622;28;20363;-46
2022/04/08 07:55:37;;;;;;;2.63;1.20;;;7.00;98.30;;;;;;5062643;28;20197;-43
2022/04/08 07:58:04;;;;;;;2.17;1.10;;;7.20;97.60;;;;;;5064719;28;20626;-46
2022/04/08 08:00:31;;;;;;;2.30;0.90;;;7.30;97.30;;;;;;5061297;28;20277;-45
2022/04/08 08:02:58;;;;;;;3.80;1.13;;;7.50;97.00;;;;;;5060749;28;20539;-44
2022/04/08 08:05:24;;;;;;;2.03;1.20;;;7.50;96.80;;;;;;5065203;28;20428;-45
2022/04/08 08:07:50;;;;;;;2.50;0.97;;;7.60;97.30;;;;;;5062218;28;20531;-44
2022/04/08 08:10:30;;;;;;;1.27;0.77;;;7.60;96.40;;;;;;5057815;28;20441;-47
2022/04/08 08:12:57;;;;;;;1.53;0.60;;;7.50;96.60;;;;;;5054174;28;20435;-47
2022/04/08 08:15:24;;;;;;;1.37;0.87;;;7.40;96.60;;;;;;5060881;28;20717;-46
2022/04/08 08:17:49;;;;;;;2.50;1.03;;;7.50;96.80;;;;;;5058177;28;20453;-46
2022/04/08 08:20:16;;;;;;;1.50;0.87;;;7.40;97.00;;;;;;5061382;28;20479;-48
2022/04/08 08:22:42;;;;;;;2.33;0.90;;;7.30;97.10;;;;;;5063791;28;20435;-45
2022/04/08 08:25:09;;;;;;;2.03;1.13;;;7.30;97.10;;;;;;5063175;28;20503;-44
2022/04/08 08:27:44;;;;;;;2.77;1.07;;;7.40;97.50;;;;;;5064028;28;20427;-45
2022/04/08 08:30:12;;;;;;;3.13;1.27;;;7.50;97.90;;;;;;5065620;28;21146;-46
2022/04/08 08:32:38;;;;;;;2.13;0.80;;;7.70;98.40;;;;;;5065435;28;20764;-44
2022/04/08 08:35:14;;;;;;;1.63;0.90;;;8.00;98.10;;;;;;5064036;28;20439;-45
2022/04/08 08:37:40;;;;;;;2.63;0.87;;;8.10;96.60;;;;;;5064435;28;20746;-46
2022/04/08 08:40:07;;;;;;;2.20;0.90;;;8.10;97.10;;;;;;5062235;28;20486;-44
2022/04/08 08:42:36;;;;;;;4.87;1.27;;;8.00;97.20;;;;;;5065050;28;20762;-43
2022/04/08 08:45:02;;;;;;;1.40;0.63;;;8.20;97.70;;;;;;5063871;28;20809;-46
2022/04/08 08:47:29;;;;;;;1.40;0.80;;;8.20;97.20;;;;;;5062868;28;20903;-44
2022/04/08 08:49:56;;;;;;;2.33;0.80;;;8.20;97.10;;;;;;5063311;28;20424;-45
2022/04/08 08:52:22;;;;;;;1.57;1.10;;;8.00;96.80;;;;;;5063063;28;20431;-44
2022/04/08 08:54:48;;;;;;;2.40;1.10;;;8.10;97.00;;;;;;5064923;28;20505;-44
2022/04/08 08:57:17;;;;;;;1.10;1.00;;;7.90;96.90;;;;;;5062164;28;20478;-45
2022/04/08 08:59:46;;;;;;;1.30;0.80;;;8.10;97.30;;;;;;5063414;28;20698;-44
2022/04/08 09:02:18;;;;;;;1.10;0.70;;;8.30;96.80;;;;;;5061356;28;20524;-44
2022/04/08 09:04:44;;;;;;;1.20;0.60;;;8.00;96.30;;;;;;5061001;28;20424;-44
2022/04/08 09:07:27;;;;;;;1.50;0.77;;;8.00;97.20;;;;;;5062309;28;20574;-44
2022/04/08 09:09:57;;;;;;;1.47;0.90;;;8.10;97.50;;;;;;5063140;28;20685;-46
2022/04/08 09:12:25;;;;;;;1.73;0.90;;;8.00;97.10;;;;;;5061733;28;20619;-45
2022/04/08 09:14:52;;;;;;;1.43;0.93;;;8.00;97.30;;;;;;5064582;28;20509;-44
2022/04/08 09:17:19;;;;;;;1.30;0.80;;;8.20;97.60;;;;;;5062561;28;20416;-45
2022/04/08 09:19:49;;;;;;;0.93;0.60;;;8.30;96.50;;;;;;5062841;28;20518;-45
2022/04/08 09:22:16;;;;;;;2.87;0.90;;;8.40;96.10;;;;;;5063209;28;20426;-45
2022/04/08 09:24:42;;;;;;;1.30;0.77;;;8.60;95.90;;;;;;5065122;28;20826;-46
2022/04/08 09:27:09;;;;;;;1.20;0.67;;;8.70;96.10;;;;;;5067967;28;20970;-46
2022/04/08 09:29:35;;;;;;;1.40;0.93;;;8.90;96.30;;;;;;5055741;28;20445;-45
2022/04/08 09:32:08;;;;;;;1.73;0.60;;;9.00;96.10;;;;;;5065051;28;20571;-44
2022/04/08 09:34:34;;;;;;;1.17;0.60;;;8.90;95.20;;;;;;5065425;28;20224;-47
2022/04/08 09:37:06;;;;;;;1.10;0.50;;;9.10;95.70;;;;;;5066541;28;20547;-44
2022/04/08 09:39:31;;;;;;;3.33;0.80;;;9.20;96.00;;;;;;5066557;28;20249;-44
2022/04/08 09:42:03;;;;;;;1.00;0.57;;;9.40;95.40;;;;;;5066235;28;20736;-46
2022/04/08 09:44:29;;;;;;;2.23;0.70;;;9.40;95.10;;;;;;5061561;28;20252;-46
2022/04/08 09:46:54;;;;;;;1.93;0.70;;;9.70;97.30;;;;;;5067635;28;20507;-46
2022/04/08 09:49:20;;;;;;;1.77;0.80;;;9.70;95.50;;;;;;5065549;28;20196;-48
2022/04/08 09:51:50;;;;;;;2.40;0.77;;;10.00;95.30;;;;;;5065951;28;20680;-46
2022/04/08 09:54:20;;;;;;;1.40;0.93;;;10.30;95.50;;;;;;5064105;28;20189;-45
2022/04/08 09:56:46;;;;;;;1.50;0.90;;;10.40;93.10;;;;;;5062484;28;20699;-44
2022/04/08 09:59:19;;;;;;;2.17;1.30;;;10.40;92.70;;;;;;5062386;28;20471;-43
2022/04/08 10:01:46;;;;;;;1.40;0.90;;;10.40;92.70;;;;;;5060242;28;20295;-43
2022/04/08 10:04:12;;;;;;;1.33;0.90;;;10.40;92.70;;;;;;5051864;28;20476;-45
2022/04/08 10:06:39;;;;;;;2.70;0.90;;;10.40;92.90;;;;;;5061502;28;20730;-45
2022/04/08 10:09:07;;;;;;;2.27;1.20;;;10.30;93.00;;;;;;5060867;28;20456;-45
2022/04/08 10:11:57;;;;;;;2.27;1.00;;;10.20;93.20;;;;;;5053070;28;20753;-44
2022/04/08 10:15:00;;;;;;;1.50;0.80;;;10.20;94.00;;;;;;5043634;28;20442;-46
2022/04/08 10:17:26;;;;;;;1.20;0.70;;;10.20;94.50;;;;;;5054041;28;20470;-44
2022/04/08 10:19:52;;;;;;;1.10;0.60;;;10.30;94.80;;;;;;5063789;28;20495;-44
2022/04/08 10:22:19;;;;;;;2.40;1.23;;;10.30;94.50;;;;;;5063921;28;20432;-44
2022/04/08 10:24:56;;;;;;;2.17;1.27;;;10.40;94.50;;;;;;5064024;28;20247;-46
2022/04/08 10:27:31;;;;;;;1.97;1.13;;;10.40;94.40;;;;;;5059550;28;20459;-50
2022/04/08 10:29:59;;;;;;;2.20;1.10;;;10.30;93.30;;;;;;5063854;28;20455;-44
2022/04/08 10:32:25;;;;;;;2.00;1.10;;;10.20;93.60;;;;;;5060026;28;20455;-47
2022/04/08 10:34:50;;;;;;;2.27;1.17;;;10.10;94.20;;;;;;5054636;28;20449;-45
2022/04/08 10:37:20;;;;;;;1.50;0.93;;;9.90;94.70;;;;;;5051390;28;20453;-45
2022/04/08 10:40:05;;;;;;;6.50;1.37;;;9.80;95.10;;;;;;5061945;28;20213;-44
2022/04/08 10:42:34;;;;;;;1.87;0.93;;;9.70;95.60;;;;;;5064429;28;20439;-47
2022/04/08 10:45:10;;;;;;;1.87;1.03;;;9.80;96.30;;;;;;5066097;28;20438;-47
2022/04/08 10:47:46;;;;;;;1.50;1.40;;;9.90;96.70;;;;;;5063840;28;20439;-46
2022/04/08 10:50:12;;;;;;;1.20;0.90;;;10.00;96.30;;;;;;5067865;28;20992;-45
2022/04/08 10:52:41;;;;;;;1.90;0.80;;;10.00;95.20;;;;;;5045966;28;20434;-48
2022/04/08 10:55:13;;;;;;;1.73;1.10;;;9.90;95.40;;;;;;5065236;28;20185;-45
2022/04/08 10:57:41;;;;;;;1.20;0.73;;;9.70;95.80;;;;;;5067906;28;20431;-47
2022/04/08 11:00:11;;;;;;;1.63;1.03;;;9.50;96.60;;;;;;5063092;28;20968;-46
2022/04/08 11:02:38;;;;;;;1.67;1.20;;;9.50;97.00;;;;;;5064538;28;20424;-44
2022/04/08 11:05:05;;;;;;;1.93;1.10;;;9.40;97.40;;;;;;5064455;28;20420;-45
2022/04/08 11:07:32;;;;;;;1.40;1.30;;;9.40;97.90;;;;;;5062526;28;20748;-46
2022/04/08 11:09:58;;;;;;;1.70;1.20;;;9.30;97.70;;;;;;5065990;28;20456;-45
2022/04/08 11:12:25;;;;;;;2.63;1.17;;;9.40;97.20;;;;;;5061886;28;20454;-45
2022/04/08 11:14:55;;;;;;;1.50;1.03;;;9.30;97.40;;;;;;5061335;28;20518;-44
2022/04/08 11:17:21;;;;;;;4.50;1.50;;;9.20;97.70;;;;;;5058744;28;20915;-44
2022/04/08 11:19:53;;;;;;;8.20;7.60;;;9.20;98.10;;;;;;5061773;28;20954;-48
2022/04/08 11:22:18;;;;;;;4.17;3.77;;;9.20;98.30;;;;;;5057843;28;20574;-45
2022/04/08 11:24:44;;;;;;;2.33;2.10;;;9.20;98.00;;;;;;5060094;28;20553;-45
2022/04/08 11:27:10;;;;;;;1.83;1.37;;;9.20;98.20;;;;;;5060350;28;21357;-48
2022/04/08 11:29:36;;;;;;;1.23;1.13;;;9.20;98.70;;;;;;5062174;28;20318;-47
2022/04/08 11:32:07;;;;;;;1.27;0.80;;;9.30;99.00;;;;;;5062581;28;20930;-45
2022/04/08 11:34:36;;;;;;;2.00;1.03;;;9.30;99.10;;;;;;5065244;28;20424;-48
2022/04/08 11:37:03;;;;;;;2.40;1.30;;;9.30;98.70;;;;;;5064575;28;20553;-45
2022/04/08 11:39:30;;;;;;;2.63;1.20;;;9.40;98.70;;;;;;5065203;28;20533;-45
2022/04/08 11:41:57;;;;;;;1.77;0.90;;;9.40;98.00;;;;;;5050408;28;20462;-45
2022/04/08 11:44:23;;;;;;;1.40;1.13;;;9.50;98.20;;;;;;5069644;28;20716;-47
2022/04/08 11:46:49;;;;;;;1.87;1.00;;;9.50;97.90;;;;;;5067127;28;20841;-48
2022/04/08 11:49:15;;;;;;;1.83;1.63;;;9.60;98.00;;;;;;5068611;28;20447;-45
2022/04/08 11:51:41;;;;;;;3.40;1.60;;;9.60;98.20;;;;;;5070970;28;20802;-46
2022/04/08 11:54:07;;;;;;;1.40;1.30;;;9.80;98.50;;;;;;5070133;28;20434;-45
2022/04/08 11:56:33;;;;;;;1.73;1.17;;;9.90;98.60;;;;;;5068592;28;20179;-46
2022/04/08 11:59:04;;;;;;;3.80;1.60;;;10.00;97.80;;;;;;5068197;28;20294;-48
2022/04/08 12:01:40;;;;;;;2.00;1.40;;;10.00;97.10;;;;;;5066389;28;20189;-46
2022/04/08 12:04:11;;;;;;;2.03;1.70;;;10.00;97.10;;;;;;5064584;28;20429;-45
2022/04/08 12:06:45;;;;;;;3.10;1.53;;;9.80;97.70;;;;;;5030486;28;20860;-45
2022/04/08 12:09:12;;;;;;;2.87;1.70;;;9.70;97.40;;;;;;5030906;28;20915;-46
2022/04/08 12:11:39;;;;;;;2.03;1.60;;;9.50;97.50;;;;;;5031346;28;20440;-45
2022/04/08 12:14:08;;;;;;;2.13;1.60;;;9.40;97.90;;;;;;5044114;28;20846;-45
2022/04/08 12:16:34;;;;;;;1.70;1.60;;;9.40;98.50;;;;;;5060032;28;20528;-44
2022/04/08 12:19:02;;;;;;;2.20;2.00;;;9.40;99.10;;;;;;5063132;28;20970;-46
2022/04/08 12:21:29;;;;;;;2.30;2.10;;;9.40;99.20;;;;;;5063454;28;20442;-48
2022/04/08 12:24:04;;;;;;;1.90;1.70;;;9.30;99.30;;;;;;5063418;28;20531;-45
2022/04/08 12:26:31;;;;;;;2.83;1.40;;;9.30;99.60;;;;;;5065251;28;20489;-45
2022/04/08 12:29:12;;;;;;;1.97;1.50;;;9.20;99.10;;;;;;5064359;28;20424;-48
2022/04/08 12:31:54;;;;;;;1.77;1.60;;;9.10;98.70;;;;;;5062639;28;21536;-44
2022/04/08 12:34:20;;;;;;;3.00;1.70;;;8.90;98.90;;;;;;5064178;28;20419;-45
2022/04/08 12:36:47;;;;;;;1.70;1.40;;;8.70;99.40;;;;;;5063297;28;20708;-45
2022/04/08 12:39:13;;;;;;;1.70;1.53;;;8.40;99.70;;;;;;5060848;28;20468;-46
2022/04/08 12:41:43;;;;;;;2.00;1.83;;;8.30;99.90;;;;;;5060797;28;20859;-46
2022/04/08 12:44:09;;;;;;;2.33;1.70;;;8.40;99.90;;;;;;5058733;28;20493;-49
2022/04/08 12:46:36;;;;;;;3.00;1.97;;;8.40;99.90;;;;;;5062439;28;20478;-44
2022/04/08 12:49:02;;;;;;;1.93;1.77;;;8.50;99.90;;;;;;5058084;28;20435;-45
2022/04/08 12:51:28;;;;;;;3.00;1.40;;;8.50;99.90;;;;;;5059909;28;20661;-45
2022/04/08 12:53:54;;;;;;;2.00;1.50;;;8.60;99.90;;;;;;5062073;28;20478;-45
2022/04/08 12:56:20;;;;;;;1.70;1.37;;;8.40;99.90;;;;;;5061632;28;20787;-45
2022/04/08 12:58:46;;;;;;;3.40;1.73;;;8.50;99.90;;;;;;5059886;28;20669;-46